28. September 2022

Uhrzeit Code Wetter Temp. Sichtweite Wolkendecke Wind METAR/SPECI
02:25
V
8 °C 10 km+ 21.000 ft 230° 230° 6 kt METAR EHVL 280025Z AUTO 23006KT 9999 FEW015CB SCT150 OVC210 08/07 Q0994 BLU
02:08
V
9 °C 10 km+ 10.000 ft 210° 210° 5 kt METAR EHVL 280008Z AUTO 21005KT 9999 FEW015CB OVC100 09/07 Q0994 BLU
01:55
V
9 °C 10 km+ 4.900 ft 190° 190° 3 kt METAR EHVL 272355Z AUTO 19003KT 150V210 9999 -RA FEW002 FEW015CB SCT038 BKN049 09/08 Q0994 RERA BLU
01:43
V
9 °C 10 km+ 3.600 ft Var Var 2 kt METAR EHVL 272343Z AUTO VRB02KT 9999 -SHRA FEW001 FEW015CB BKN036 OVC041 09/08 Q0994 BLU
01:38
V
9 °C 10 km+ 3.600 ft Var Var 1 kt METAR EHVL 272338Z AUTO VRB01KT 9999 -SHRA SCT001 FEW015CB BKN036 OVC042 09/08 Q0994 RED
01:34
V
9 °C 10 km+ 3.700 ft Var Var 2 kt METAR EHVL 272334Z AUTO VRB02KT 9999 SHRA FEW001 FEW015CB SCT033 BKN037 09/08 Q0995 BLU
01:29
M
9 °C 5 km 3.400 ft 260° 260° 5 kt METAR EHVL 272329Z AUTO 26005KT 220V300 5000 RA FEW015CB SCT030 BKN034 09/08 Q0995 WHT
01:25
I
9 °C 2,3 km 2.900 ft 260° 260° 9 kt METAR EHVL 272325Z AUTO 26009KT 2300 -RA FEW015CB BKN029 OVC036 09/08 Q0995 YLO
01:20
V
9 °C 10 km+ 3.000 ft 270° 270° 12 kt METAR EHVL 272320Z AUTO 27012KT 9999 FEW014 FEW015CB OVC030 09/07 Q0995 BLU
01:10
M
9 °C 10 km+ 2.500 ft 240° 240° 10 kt METAR EHVL 272310Z AUTO 24010KT 9999 SCT015CB BKN025 BKN029 09/08 Q0995 WHT
00:55
V
9 °C 10 km+ 4.600 ft 210° 210° 10 kt METAR EHVL 272255Z AUTO 21010KT 9999 -RA FEW001 FEW015CB SCT040 BKN046 09/08 Q0994 BLU
00:37
V
9 °C 8 km 4.100 ft 200° 200° 7 kt METAR EHVL 272237Z AUTO 20007KT 8000 -RA FEW015CB OVC041 09/08 Q0995 BLU
00:26
M
9 °C 6 km 3.400 ft 200° 200° 7 kt METAR EHVL 272226Z AUTO 20007KT 6000 -SHRA FEW015CB BKN034 OVC040 09/08 Q0995 WHT
00:25
V
9 °C 10 km+ 3.700 ft 200° 200° 7 kt METAR EHVL 272225Z AUTO 20007KT 9999 -SHRA FEW001 SCT026 BKN037 09/08 Q0995 BLU
00:15
M
9 °C 10 km+ 2.600 ft 200° 200° 6 kt METAR EHVL 272215Z AUTO 20006KT 9999 -SHRA SCT001 SCT012 BKN026 09/08 Q0995 RED
00:13
V
9 °C 9 km 3.000 ft 200° 200° 6 kt METAR EHVL 272213Z AUTO 20006KT 9000 -SHRA FEW001 SCT013 BKN030 09/08 Q0995 GRN
00:10
V
9 °C 8 km 3.100 ft 190° 190° 5 kt METAR EHVL 272210Z AUTO 19005KT 8000 SHRA FEW001 BKN031 OVC039 09/08 Q0995 BLU

27. September 2022

Uhrzeit Code Wetter Temp. Sichtweite Wolkendecke Wind METAR/SPECI
23:55
V
9 °C 9 km 3.300 ft 180° 180° 3 kt METAR EHVL 272155Z AUTO 18003KT 140V200 9000 -RA FEW019 SCT022 BKN033 09/08 Q0995 RERAUPRA WHT
23:44
M
9 °C 7 km 1.900 ft 180° 180° 4 kt METAR EHVL 272144Z AUTO 18004KT 140V210 7000 -SHRA FEW000 BKN019 BKN022 09/08 Q0995 WHT
23:43
I
9 °C 4,4 km 2.100 ft 190° 190° 5 kt METAR EHVL 272143Z AUTO 19005KT 150V210 4400 +SHRA FEW000 SCT018 BKN021 09/08 Q0995 GRN
23:35
M
8 °C 10 km+ 2.800 ft 200° 200° 8 kt METAR EHVL 272135Z AUTO 20008KT 9999 FEW020 SCT023 BKN028 08/07 Q0995 WHT
23:25
V
8 °C 10 km+ 13.000 ft 200° 200° 8 kt METAR EHVL 272125Z AUTO 20008KT 9999 FEW092 OVC130 08/07 Q0995 BLU
22:55
V
8 °C 10 km+ 5.300 ft 150° 150° 4 kt METAR EHVL 272055Z AUTO 15004KT 9999 -RA SCT041 BKN053 OVC059 08/08 Q0995 BLU
22:25
V
8 °C 10 km+ 4.200 ft 140° 140° 4 kt METAR EHVL 272025Z AUTO 14004KT 9999 -RA FEW015CB BKN042 OVC047 08/08 Q0995 RERA REDZ BLU
22:13
V
8 °C 10 km+ 3.700 ft 140° 140° 3 kt METAR EHVL 272013Z AUTO 14003KT 9999 DZRA FEW015CB BKN037 BKN043 OVC052 08/08 Q0995 BLU
22:04
V
9 °C 10 km+ 5.400 ft Var Var 2 kt METAR EHVL 272004Z AUTO VRB02KT 9999 -RA FEW015CB SCT035 OVC054 09/08 Q0995 BLU
21:55
V
9 °C 10 km+ 3.500 ft 200° 200° 1 kt METAR EHVL 271955Z AUTO 20001KT 9999 -SHRA FEW015CB SCT031 BKN035 09/08 Q0995 RERA BLU
21:43
M
9 °C 5 km 3.200 ft Var Var 2 kt METAR EHVL 271943Z AUTO VRB02KT 5000 RA FEW015CB SCT025 BKN032 OVC037 09/08 Q0995 WHT
21:40
I
9 °C 4,5 km 3.000 ft 220° 220° 3 kt METAR EHVL 271940Z AUTO 22003KT 180V260 4500 RA FEW015CB SCT025 OVC030 09/08 Q0995 GRN
21:37
M
9 °C 5 km 3.100 ft 220° 220° 4 kt METAR EHVL 271937Z AUTO 22004KT 180V250 5000 RA FEW015CB SCT027 BKN031 09/08 Q0995 WHT
21:25
M
9 °C 6 km 1.700 ft 260° 260° 4 kt METAR EHVL 271925Z AUTO 26004KT 220V280 6000 -SHRA FEW002 FEW015CB BKN017 BKN021 09/07 Q0995 RERA WHT
21:03
M
9 °C 6 km 1.700 ft 170° 170° 3 kt METAR EHVL 271903Z AUTO 17003KT 140V220 6000 SHRA FEW003 FEW015CB BKN017 BKN024 09/07 Q0995 WHT
20:59
I
9 °C 4,2 km 1.700 ft 200° 200° 4 kt METAR EHVL 271859Z AUTO 20004KT 150V230 4200 +SHRA FEW003 FEW015CB BKN017 OVC022 09/07 Q0995 GRN
20:55
M
9 °C 6 km 1.700 ft 220° 220° 6 kt METAR EHVL 271855Z AUTO 22006KT 180V240 6000 SHRA FEW015CB BKN017 OVC020 09/08 Q0995 WHT
20:42
I
9 °C 2,7 km 2.000 ft 220° 220° 8 kt METAR EHVL 271842Z AUTO 22008KT 2700 SHRA FEW000 FEW015CB BKN020 BKN027 09/08 Q0995 YLO
20:38
M
9 °C 5 km 2.700 ft 220° 220° 8 kt METAR EHVL 271838Z AUTO 22008KT 5000 +SHRA FEW000 FEW015CB BKN027 OVC031 09/08 Q0995 WHT
20:31
I
9 °C 2,2 km 3.200 ft 220° 220° 9 kt METAR EHVL 271831Z AUTO 22009KT 2200 SHRA FEW004 FEW015CB SCT027 BKN032 09/08 Q0995 YLO
20:25
M
9 °C 5 km 2.000 ft 240° 240° 13 kt METAR EHVL 271825Z AUTO 24013KT 5000 SHRA SCT015CB BKN020 BKN026 09/07 Q0995 WHT
20:12
M
9 °C 8 km 2.100 ft 210° 210° 9 kt METAR EHVL 271812Z AUTO 21009KT 8000 -SHRA FEW015CB BKN021 OVC026 09/07 Q0995 WHT
20:04
I
9 °C 3,6 km 2.000 ft 210° 210° 7 kt METAR EHVL 271804Z AUTO 21007KT 3600 SHRA FEW015CB BKN020 OVC024 09/07 Q0995 YLO
19:59
M
9 °C 5 km 2.000 ft 210° 210° 8 kt METAR EHVL 271759Z AUTO 21008KT 5000 RA FEW004 FEW015CB OVC020 09/07 Q0995 WHT
19:55
I
9 °C 2 km 2.000 ft 210° 210° 9 kt METAR EHVL 271755Z AUTO 21009KT 2000 +SHRA FEW004 FEW015CB BKN020 OVC026 09/07 Q0995 YLO
19:44
I
9 °C 2,6 km 2.700 ft 210° 210° 10 kt METAR EHVL 271744Z AUTO 21010KT 2600 SHRA SCT024 BKN027 OVC032 09/07 Q0995 YLO
19:33
M
9 °C 5 km 3.400 ft 210° 210° 10 kt METAR EHVL 271733Z AUTO 21010KT 5000 SHRA FEW001 FEW015CB SCT029 BKN034 09/07 Q0995 WHT
19:28
V
9 °C 10 km+ 3.300 ft 210° 210° 10 kt METAR EHVL 271728Z AUTO 21010KT 9999 -SHRA FEW001 FEW015CB SCT029 BKN033 09/07 Q0995 BLU
19:25
V
9 °C 10 km+ 3.300 ft 210° 210° 11 kt METAR EHVL 271725Z AUTO 21011KT 9999 SHRA FEW001 SCT029 BKN033 09/07 Q0995 REDZ BLU
19:16
M
9 °C 5 km 3.900 ft 210° 210° 13 kt METAR EHVL 271716Z AUTO 21013KT 5000 SHRA FEW005 SCT034 BKN039 09/07 Q0995 WHT
18:55
V
10 °C 10 km+ 4.000 ft 230° 230° 11 kt METAR EHVL 271655Z AUTO 23011KT 190V260 9999 FEW015CB OVC040 10/06 Q0995 BLU
18:25
V
10 °C 10 km+ 4.800 ft 260° 260° 13 kt METAR EHVL 271625Z AUTO 26013KT 9999 -RA FEW017CB BKN048 OVC052 10/06 Q0995 BLU
17:55
V
10 °C 10 km+ 4.200 ft 260° 260° 13 kt METAR EHVL 271555Z AUTO 26013KT 9999 -RA FEW015CB SCT033 BKN042 OVC049 10/06 Q0996 RERA REDZ BLU
17:25
V
10 °C 10 km+ 3.900 ft 270° 270° 21 kt METAR EHVL 271525Z AUTO 27021KT 9999 -RADZ FEW015CB SCT034 BKN039 10/07 Q0996 BLU
17:15
V
10 °C 10 km+ 3.100 ft 280° 280° 23 kt METAR EHVL 271515Z AUTO 28023KT 9999 FEW015CB SCT027 BKN031 10/07 Q0995 BLU
17:12
M
10 °C 10 km+ 2.300 ft 280° 280° 17 kt METAR EHVL 271512Z AUTO 28017KT 220V330 9999 FEW015CB BKN023 BKN029 OVC033 10/07 Q0996 WHT
17:08
M
11 °C 10 km+ 2.800 ft Var Var 10 - 24 kt METAR EHVL 271508Z AUTO VRB10G24KT 9999 FEW015CB SCT023 BKN028 OVC033 11/07 Q0995 WHT
16:58
M
11 °C 10 km+ 2.800 ft 030° 030° 5 kt METAR EHVL 271458Z AUTO 03005KT 330V070 9999 DZRA BKN028 BKN033 BKN040 11/07 Q0995 BLU
16:55
M
10 °C 10 km+ 2.800 ft 360° 360° 8 kt METAR EHVL 271455Z AUTO 36008KT 9999 -RA BKN028 BKN031 BKN044 10/07 Q0995 BLU
16:25
V
11 °C 10 km+ 3.200 ft 270° 270° 11 kt METAR EHVL 271425Z AUTO 27011KT 9999 -RA FEW001 BKN032 BKN038 11/04 Q0995 BLU
15:55
M
13 °C 10 km+ 2.900 ft 300° 300° 11 kt METAR EHVL 271355Z AUTO 30011KT 9999 BKN029 BKN034 OVC091 13/07 Q0995 BLU
15:25
V
12 °C 10 km+ 10.000 ft 300° 300° 12 kt METAR EHVL 271325Z AUTO 30012KT 9999 OVC100 12/06 Q0995 BLU
14:55
V
12 °C 10 km+ 3.600 ft 300° 300° 12 kt METAR EHVL 271255Z AUTO 30012KT 9999 FEW019CB SCT024 BKN036 12/07 Q0995 WHT
14:48
M
12 °C 10 km+ 2.800 ft 300° 300° 12 kt METAR EHVL 271248Z AUTO 30012KT 9999 FEW017CB SCT024 BKN028 BKN032 12/08 Q0995 WHT
14:25
V
12 °C 10 km+ 4.100 ft 280° 280° 13 kt METAR EHVL 271225Z AUTO 28013KT 9999 -RA FEW015CB BKN041 BKN046 12/08 Q0996 RERA REDZ BLU
14:08
V
12 °C 10 km+ 4.700 ft 290° 290° 18 kt METAR EHVL 271208Z AUTO 29018KT 9999 -RA FEW018CB BKN047 OVC052 12/07 Q0996 BLU
14:01
V
12 °C 10 km+ 5.300 ft 300° 300° 17 kt METAR EHVL 271201Z AUTO 30017KT 9999 DZRA FEW015CB SCT047 BKN053 12/08 Q0996 BLU
13:55
V
12 °C 10 km+ 5.100 ft 300° 300° 18 kt METAR EHVL 271155Z AUTO 30018KT 9999 FEW019CB SCT046 BKN051 12/07 Q0996 BLU
13:30
V
11 °C 10 km+ 3.800 ft 300° 300° 25 kt METAR EHVL 271130Z AUTO 30025KT 9999 FEW015CB SCT032 BKN038 11/08 Q0996 BLU
13:25
M
12 °C 10 km+ 2.500 ft 290° 290° 26 kt METAR EHVL 271125Z AUTO 29026KT 9999 FEW016 SCT021 BKN025 12/08 Q0996 WHT
13:16
V
12 °C 10 km+ 3.000 ft 290° 290° 22 - 32 kt METAR EHVL 271116Z AUTO 29022G32KT 9999 FEW018 SCT022 BKN030 12/08 Q0996 WHT
12:55
M
12 °C 10 km+ 2.900 ft 300° 300° 14 kt METAR EHVL 271055Z AUTO 30014KT 9999 -RA SCT025 BKN029 BKN032 12/07 Q0996 RERA REDZ BLU
12:25
V
12 °C 10 km+ 15.000 ft 310° 310° 16 kt METAR EHVL 271025Z AUTO 31016KT 9999 -RA FEW025 SCT100 OVC150 12/07 Q0996 BLU
11:55
V
11 °C 10 km+ 3.600 ft 310° 310° 14 kt METAR EHVL 270955Z AUTO 31014KT 280V340 9999 FEW028 SCT032 BKN036 11/08 Q0996 REDZ BLU
11:36
V
11 °C 10 km+ 4.800 ft 310° 310° 21 kt METAR EHVL 270936Z AUTO 31021KT 9999 DZRA FEW032 SCT039 BKN048 11/08 Q0996 BLU
11:25
V
11 °C 10 km+ 3.100 ft 330° 330° 15 kt METAR EHVL 270925Z AUTO 33015KT 9999 FEW027 BKN031 BKN036 11/08 Q0996 BLU
11:11
V
11 °C 10 km+ 3.000 ft 340° 340° 18 kt METAR EHVL 270911Z AUTO 34018KT 9999 -RADZ FEW023 SCT026 BKN030 11/08 Q0996 BLU
11:00
M
11 °C 9 km 2.300 ft 330° 330° 17 kt METAR EHVL 270900Z AUTO 33017KT 9000 -SHRA FEW001 BKN023 BKN026 11/08 Q0996 WHT
10:59
M
11 °C 8 km 2.600 ft 320° 320° 16 kt METAR EHVL 270859Z AUTO 32016KT 8000 SHRA FEW001 SCT023 BKN026 11/08 Q0996 WHT
10:55
M
11 °C 9 km 2.600 ft 320° 320° 18 kt METAR EHVL 270855Z AUTO 32018KT 9000 -RADZ SCT023 BKN026 BKN034 11/08 Q0996 WHT
10:31
V
11 °C 10 km+ 5.800 ft 310° 310° 18 kt METAR EHVL 270831Z AUTO 31018KT 9999 -RADZ FEW038 SCT051 OVC058 11/07 Q0996 BLU
10:25
V
11 °C 10 km+ 3.400 ft 310° 310° 21 kt METAR EHVL 270825Z AUTO 31021KT 9999 -SHRA BKN034 OVC039 11/07 Q0995 BLU
10:10
V
11 °C 10 km+ 4.200 ft 320° 320° 27 kt METAR EHVL 270810Z AUTO 32027KT 9999 FEW016 SCT035 BKN042 11/07 Q0995 BLU
09:57
M
11 °C 10 km+ 2.600 ft 310° 310° 26 kt METAR EHVL 270757Z AUTO 31026KT 9999 FEW016 SCT020 BKN026 11/08 Q0995 WHT
09:55
V
12 °C 10 km+ 3.400 ft 320° 320° 20 - 31 kt METAR EHVL 270755Z AUTO 32020G31KT 9999 SCT025 SCT029 BKN034 12/08 Q0995 BLU
09:45
V
12 °C 10 km+ 3.200 ft 320° 320° 17 kt METAR EHVL 270745Z AUTO 32017KT 9999 SCT024 SCT028 BKN032 12/08 Q0995 WHT
09:25
M
11 °C 6 km 4.200 ft 320° 320° 14 kt METAR EHVL 270725Z AUTO 32014KT 6000 -SHRA FEW026 BKN042 OVC047 11/08 Q0995 RERA WHT
08:55
V
10 °C 10 km+ 4.500 ft 330° 330° 17 kt METAR EHVL 270655Z AUTO 33017KT 9999 -RA FEW015CB SCT039 BKN045 10/07 Q0995 BLU
08:25
V
12 °C 10 km+ 8.500 ft 330° 330° 20 kt METAR EHVL 270625Z AUTO 33020KT 9999 FEW028 BKN085 OVC092 12/07 Q0995 BLU
07:55
V
11 °C 10 km+ 7.500 ft 340° 340° 23 kt METAR EHVL 270555Z AUTO 34023KT 9999 FEW020 SCT064 BKN075 11/08 Q0995 BLU
07:34
M
12 °C 10 km+ 2.900 ft 310° 310° 23 kt METAR EHVL 270534Z AUTO 31023KT 9999 FEW019 SCT024 BKN029 12/08 Q0994 WHT
07:25
V
12 °C 10 km+ 3.600 ft 310° 310° 22 kt METAR EHVL 270525Z AUTO 31022KT 9999 FEW018CB SCT028 OVC036 12/07 Q0994 BLU
07:12
V
11 °C 10 km+ 4.800 ft 320° 320° 19 kt METAR EHVL 270512Z AUTO 32019KT 9999 -DZRA FEW016CB SCT042 BKN048 11/07 Q0994 BLU
07:04
V
11 °C 10 km+ 4.000 ft 330° 330° 13 kt METAR EHVL 270504Z AUTO 33013KT 9999 FEW016CB SCT027 BKN040 11/07 Q0994 BLU
06:55
M
11 °C 9 km 2.900 ft 320° 320° 17 - 27 kt METAR EHVL 270455Z AUTO 32017G27KT 9000 -SHRA FEW001 FEW015CB BKN029 BKN039 11/08 Q0994 BLU
06:41
V
11 °C 10 km+ 3.100 ft 310° 310° 20 kt METAR EHVL 270441Z AUTO 31020KT 9999 -RA FEW015CB SCT025 BKN031 11/08 Q0994 BLU
06:34
M
11 °C 10 km+ 2.900 ft 310° 310° 20 kt METAR EHVL 270434Z AUTO 31020KT 9999 FEW015CB SCT021 BKN029 11/08 Q0994 WHT
06:25
V
11 °C 10 km+ 3.700 ft 330° 330° 17 kt METAR EHVL 270425Z AUTO 33017KT 9999 -RA FEW015CB BKN037 OVC042 11/08 Q0994 RERA REDZ BLU
06:13
V
11 °C 9 km 4.800 ft 320° 320° 17 kt METAR EHVL 270413Z AUTO 32017KT 9000 -RA FEW015CB SCT039 BKN048 OVC054 11/08 Q0995 BLU
06:07
V
11 °C 10 km+ 5.700 ft 320° 320° 20 kt METAR EHVL 270407Z AUTO 32020KT 9999 DZRA FEW015CB BKN057 BKN064 11/08 Q0995 BLU
05:55
V
12 °C 10 km+ 5.600 ft 330° 330° 21 kt METAR EHVL 270355Z AUTO 33021KT 9999 FEW015CB BKN056 OVC062 12/08 Q0995 BLU
05:44
V
12 °C 10 km+ 6.400 ft 330° 330° 20 kt METAR EHVL 270344Z AUTO 33020KT 9999 FEW021 BKN064 BKN069 12/07 Q0995 BLU
05:40
V
12 °C 10 km+ 5.700 ft 330° 330° 21 kt METAR EHVL 270340Z AUTO 33021KT 9999 FEW016CB SCT038 BKN057 12/07 Q0995 BLU
05:33
M
12 °C 10 km+ 2.600 ft 330° 330° 20 kt METAR EHVL 270333Z AUTO 33020KT 9999 FEW018 SCT021 BKN026 12/08 Q0995 WHT
05:25
V
12 °C 10 km+ 5.100 ft 330° 330° 20 kt METAR EHVL 270325Z AUTO 33020KT 9999 -RA FEW023 SCT034 BKN051 12/08 Q0995 BLU
04:55
V
12 °C 10 km+ 5.200 ft 330° 330° 20 kt METAR EHVL 270255Z AUTO 33020KT 9999 FEW038 SCT048 BKN052 12/07 Q0995 BLU
04:42
V
12 °C 10 km+ 3.400 ft 330° 330° 21 kt METAR EHVL 270242Z AUTO 33021KT 9999 SCT022 SCT030 BKN034 12/08 Q0995 WHT
04:25
V
12 °C 10 km+ - 330° 330° 22 kt METAR EHVL 270225Z AUTO 33022KT 9999 FEW029 SCT047 12/06 Q0995 BLU
03:55
V
12 °C 10 km+ 5.000 ft 330° 330° 23 kt METAR EHVL 270155Z AUTO 33023KT 9999 BKN050 12/07 Q0995 BLU
03:25
V
12 °C 10 km+ - 320° 320° 23 kt METAR EHVL 270125Z AUTO 32023KT 9999 FEW026 SCT039 12/07 Q0995 BLU
02:55
V
12 °C 10 km+ - 320° 320° 21 kt METAR EHVL 270055Z AUTO 32021KT 9999 FEW055 12/08 Q0995 REDZ BLU
02:44
V
11 °C 10 km+ 5.300 ft 330° 330° 23 kt METAR EHVL 270044Z AUTO 33023KT 9999 -DZ FEW008 FEW015CB SCT047 BKN053 11/08 Q0995 BLU
02:37
V
11 °C 10 km+ 5.600 ft 330° 330° 22 kt METAR EHVL 270037Z AUTO 33022KT 9999 DZRA FEW008 SCT036 BKN056 11/08 Q0995 BLU
02:34
V
11 °C 10 km+ 4.500 ft 340° 340° 19 kt METAR EHVL 270034Z AUTO 34019KT 9999 FEW021/// SCT026/// BKN045/// 11/09 Q0995 BLU
02:25
V
11 °C 9 km 4.400 ft 340° 340° 22 kt METAR EHVL 270025Z AUTO 34022KT 9000 DZRA FEW015 SCT033 BKN044 11/09 Q0995 BLU
02:16
V
11 °C 10 km+ 8.200 ft 330° 330° 21 kt METAR EHVL 270016Z AUTO 33021KT 9999 FEW017 SCT029 BKN082 11/09 Q0995 BLU
02:06
V
11 °C 10 km+ 4.500 ft 330° 330° 21 kt METAR EHVL 270006Z AUTO 33021KT 9999 -RA FEW015CB SCT037 BKN045 11/09 Q0995 BLU
01:56
V
12 °C 10 km+ 3.100 ft 330° 330° 20 kt METAR EHVL 262356Z AUTO 33020KT 9999 -RA FEW015CB SCT024 BKN031 12/08 Q0995 WHT
01:55
V
12 °C 10 km+ 8.800 ft 340° 340° 18 kt METAR EHVL 262355Z AUTO 34018KT 9999 FEW015CB SCT081 BKN088 12/09 Q0995 REDZ BLU
01:41
M
12 °C 10 km+ 2.500 ft 330° 330° 20 kt METAR EHVL 262341Z AUTO 33020KT 9999 DZ FEW017 SCT020 BKN025 12/09 Q0995 WHT
01:37
M
12 °C 10 km+ 2.100 ft 330° 330° 24 kt METAR EHVL 262337Z AUTO 33024KT 9999 -RA FEW015CB BKN021 BKN024 12/09 Q0995 WHT
01:25
V
11 °C 10 km+ 4.700 ft 330° 330° 21 - 31 kt METAR EHVL 262325Z AUTO 33021G31KT 9999 -RA FEW015CB SCT030 BKN047 11/08 Q0995 BLU
01:18
V
12 °C 10 km+ 5.000 ft 320° 320° 21 - 31 kt METAR EHVL 262318Z AUTO 32021G31KT 9999 -RA FEW015CB SCT030 BKN050 12/09 Q0995 BLU
01:11
M
12 °C 6 km 2.600 ft 310° 310° 24 kt METAR EHVL 262311Z AUTO 31024KT 6000 -RA FEW004 FEW015CB SCT022 BKN026 12/09 Q0995 WHT
01:03
V
12 °C 10 km+ 3.100 ft 320° 320° 22 - 32 kt METAR EHVL 262303Z AUTO 32022G32KT 9999 FEW015CB SCT022 BKN031 12/08 Q0995 WHT
00:55
V
12 °C 10 km+ 3.000 ft 330° 330° 20 kt METAR EHVL 262255Z AUTO 33020KT 9999 SCT023 SCT026 BKN030 12/08 Q0995 WHT
00:25
V
12 °C 10 km+ 7.700 ft 340° 340° 23 kt METAR EHVL 262225Z AUTO 34023KT 9999 FEW027 SCT034 BKN077 12/07 Q0995 REDZ BLU

26. September 2022

Uhrzeit Code Wetter Temp. Sichtweite Wolkendecke Wind METAR/SPECI
23:55
V
11 °C 10 km+ 3.800 ft 350° 350° 20 kt METAR EHVL 262155Z AUTO 35020KT 9999 -RADZ FEW015CB SCT029 BKN038 11/09 Q0995 BLU
23:42
V
11 °C 10 km+ 3.900 ft 350° 350° 20 kt METAR EHVL 262142Z AUTO 35020KT 9999 -RADZ FEW015CB SCT031 BKN039 11/09 Q0995 BLU
23:41
M
11 °C 6 km 3.000 ft 350° 350° 22 kt METAR EHVL 262141Z AUTO 35022KT 6000 -SHRA FEW001 FEW015CB SCT022 BKN030 11/09 Q0995 WHT
23:37
M
11 °C 5 km 2.200 ft 340° 340° 24 kt METAR EHVL 262137Z AUTO 34024KT 5000 -RA FEW001 FEW015CB SCT016 BKN022 11/09 Q0995 WHT
23:25
V
12 °C 10 km+ 4.000 ft 330° 330° 25 kt METAR EHVL 262125Z AUTO 33025KT 9999 FEW015CB SCT029 BKN040 12/09 Q0995 RERA BLU
23:19
I
11 °C 4,1 km 2.900 ft 340° 340° 22 kt METAR EHVL 262119Z AUTO 34022KT 4100 SHRA FEW018 SCT023 BKN029 11/09 Q0995 GRN
23:12
I
11 °C 3,5 km 3.000 ft 340° 340° 21 kt METAR EHVL 262112Z AUTO 34021KT 3500 -RA FEW019 SCT023 BKN030 11/09 Q0995 YLO
23:08
M
12 °C 10 km+ 2.800 ft 330° 330° 23 kt METAR EHVL 262108Z AUTO 33023KT 9999 SCT022 BKN028 BKN099 12/08 Q0995 WHT
23:03
V
12 °C 10 km+ 9.900 ft 330° 330° 23 kt METAR EHVL 262103Z AUTO 33023KT 9999 FEW024 SCT028 BKN099 12/08 Q0995 BLU
22:59
V
12 °C 10 km+ 3.200 ft 330° 330° 23 kt METAR EHVL 262059Z AUTO 33023KT 9999 SCT024 SCT028 BKN032 12/08 Q0995 WHT
22:55
V
12 °C 10 km+ 4.800 ft 330° 330° 23 kt METAR EHVL 262055Z AUTO 33023KT 9999 FEW022 SCT031 BKN048 12/08 Q0995 RERA BLU
22:37
V
12 °C 10 km+ 7.900 ft 320° 320° 22 kt METAR EHVL 262037Z AUTO 32022KT 9999 FEW019 SCT039 BKN079 12/08 Q0995 BLU
22:33
V
12 °C 9 km 3.900 ft 330° 330° 20 kt METAR EHVL 262033Z AUTO 33020KT 9000 RA FEW018 SCT024 BKN039 12/09 Q0995 WHT
22:25
M
12 °C 10 km+ 2.700 ft 330° 330° 21 kt METAR EHVL 262025Z AUTO 33021KT 9999 -RA FEW018 SCT022 BKN027 12/09 Q0995 WHT
22:01
V
12 °C 10 km+ 3.900 ft 320° 320° 22 kt METAR EHVL 262001Z AUTO 32022KT 9999 FEW023 SCT027 BKN039 12/08 Q0995 BLU
21:55
V
13 °C 10 km+ 8.700 ft 320° 320° 22 kt METAR EHVL 261955Z AUTO 32022KT 9999 FEW017CB SCT079 BKN087 13/08 Q0995 BLU
21:32
M
12 °C 10 km+ 2.800 ft 320° 320° 23 kt METAR EHVL 261932Z AUTO 32023KT 9999 FEW019 BKN028 BKN032 12/09 Q0995 BLU
21:25
M
13 °C 10 km+ 2.300 ft 310° 310° 24 kt METAR EHVL 261925Z AUTO 31024KT 9999 FEW019 BKN023 BKN026 13/09 Q0995 WHT
21:21
M
13 °C 10 km+ 2.600 ft 310° 310° 23 kt METAR EHVL 261921Z AUTO 31023KT 9999 SCT023 BKN026 OVC032 13/09 Q0995 WHT
21:17
M
13 °C 10 km+ 2.600 ft 310° 310° 23 kt METAR EHVL 261917Z AUTO 31023KT 9999 -RA SCT022 BKN026 BKN030 13/08 Q0995 WHT
21:04
M
13 °C 10 km+ 2.500 ft 320° 320° 23 kt METAR EHVL 261904Z AUTO 32023KT 9999 BKN025 BKN029 OVC035 13/08 Q0995 BLU
20:55
M
13 °C 10 km+ 2.600 ft 320° 320° 22 kt METAR EHVL 261855Z AUTO 32022KT 9999 FEW016CB BKN026 OVC078 13/09 Q0995 REDZ BLU
20:31
V
13 °C 10 km+ 3.900 ft 320° 320° 22 kt METAR EHVL 261831Z AUTO 32022KT 9999 FEW015CB SCT028 BKN039 13/09 Q0994 BLU
20:25
V
13 °C 10 km+ 3.700 ft 320° 320° 23 kt METAR EHVL 261825Z AUTO 32023KT 9999 -RA FEW015CB SCT024 BKN037 13/09 Q0994 WHT
20:18
V
12 °C 10 km+ 3.500 ft 330° 330° 22 kt METAR EHVL 261818Z AUTO 33022KT 9999 -RA FEW015CB SCT025 BKN035 12/09 Q0994 BLU
20:14
M
13 °C 10 km+ 2.900 ft 330° 330° 22 kt METAR EHVL 261814Z AUTO 33022KT 9999 FEW015CB SCT024 BKN029 BKN036 13/09 Q0994 WHT
20:13
V
13 °C 10 km+ 3.100 ft 330° 330° 22 kt METAR EHVL 261813Z AUTO 33022KT 9999 FEW016CB SCT028 BKN031 13/09 Q0994 BLU
19:55
V
12 °C 10 km+ 4.000 ft 330° 330° 22 kt METAR EHVL 261755Z AUTO 33022KT 9999 -RA FEW015CB SCT025 BKN040 12/09 Q0994 BLU
19:38
V
13 °C 10 km+ 4.200 ft 330° 330° 21 kt METAR EHVL 261738Z AUTO 33021KT 9999 SCT031 BKN042 BKN046 13/08 Q0994 BLU
19:25
M
12 °C 5 km 3.200 ft 350° 350° 18 kt METAR EHVL 261725Z AUTO 35018KT 5000 +RA FEW020 SCT024 BKN032 12/10 Q0994 WHT
19:11
V
13 °C 10 km+ 4.600 ft 340° 340° 17 kt METAR EHVL 261711Z AUTO 34017KT 9999 FEW022 SCT027 BKN046 13/09 Q0994 BLU
18:55
M
13 °C 10 km+ 2.000 ft 340° 340° 18 kt METAR EHVL 261655Z AUTO 34018KT 9999 SCT017 BKN020 BKN036 13/10 Q0994 WHT
18:37
M
13 °C 10 km+ 1.600 ft 340° 340° 20 kt METAR EHVL 261637Z AUTO 34020KT 9999 BKN016 BKN026 BKN087 13/10 Q0994 WHT
18:25
V
13 °C 10 km+ 12.000 ft 330° 330° 20 kt METAR EHVL 261625Z AUTO 33020KT 9999 FEW018 OVC120 13/10 Q0994 REDZ BLU
18:16
V
13 °C 10 km+ 12.000 ft 330° 330° 21 kt METAR EHVL 261616Z AUTO 33021KT 9999 FEW018 SCT087 BKN120 13/10 Q0994 BLU
18:11
V
13 °C 10 km+ 8.700 ft 330° 330° 22 kt METAR EHVL 261611Z AUTO 33022KT 9999 FEW015CB SCT025 BKN087 13/10 Q0994 BLU
18:01
M
13 °C 10 km+ 2.300 ft 320° 320° 23 kt METAR EHVL 261601Z AUTO 32023KT 9999 -RADZ FEW015CB BKN023 BKN032 13/10 Q0994 WHT
17:55
V
14 °C 10 km+ 8.700 ft 320° 320° 19 kt METAR EHVL 261555Z AUTO 32019KT 9999 FEW018CB SCT027 BKN087 14/09 Q0994 BLU
17:38
V
13 °C 10 km+ 7.400 ft 320° 320° 19 kt METAR EHVL 261538Z AUTO 32019KT 9999 FEW015CB SCT042 BKN074 13/09 Q0994 BLU
17:33
M
13 °C 10 km+ 2.900 ft 310° 310° 16 kt METAR EHVL 261533Z AUTO 31016KT 270V340 9999 FEW015CB SCT020 BKN029 13/10 Q0994 WHT
17:29
V
13 °C 10 km+ 3.500 ft 300° 300° 10 - 20 kt METAR EHVL 261529Z AUTO 30010G20KT 270V340 9999 FEW015CB SCT023 BKN035 13/10 Q0994 WHT
17:25
M
12 °C 10 km+ 2.800 ft 290° 290° 8 kt METAR EHVL 261525Z AUTO 29008KT 9999 -RADZ FEW015CB BKN028 BKN052 12/10 Q0994 BLU
17:07
V
12 °C 10 km+ 5.400 ft 320° 320° 13 kt METAR EHVL 261507Z AUTO 32013KT 9999 -RA FEW015CB BKN054 OVC059 12/10 Q0994 BLU
17:02
M
13 °C 6 km 5.100 ft 320° 320° 16 kt METAR EHVL 261502Z AUTO 32016KT 6000 -RA FEW015CB OVC051 13/10 Q0994 WHT
16:57
V
13 °C 10 km+ 4.900 ft 310° 310° 17 kt METAR EHVL 261457Z AUTO 31017KT 9999 -RA FEW015CB SCT043 BKN049 13/10 Q0994 BLU
16:55
V
14 °C 10 km+ 3.500 ft 310° 310° 17 kt METAR EHVL 261455Z AUTO 31017KT 9999 DZRA FEW015CB SCT022 BKN035 14/11 Q0994 WHT
16:25
V
14 °C 10 km+ 9.300 ft 310° 310° 16 kt METAR EHVL 261425Z AUTO 31016KT 9999 FEW018 SCT086 BKN093 14/09 Q0994 BLU
15:55
V
15 °C 10 km+ - 310° 310° 17 kt METAR EHVL 261355Z AUTO 31017KT 9999 SCT110 15/10 Q0994 BLU
15:25
V
14 °C 10 km+ 5.700 ft 310° 310° 19 kt METAR EHVL 261325Z AUTO 31019KT 9999 FEW037 SCT046 BKN057 14/10 Q0994 BLU
15:09
M
14 °C 10 km+ 2.600 ft 320° 320° 21 kt METAR EHVL 261309Z AUTO 32021KT 9999 FEW021 BKN026 OVC030 14/10 Q0994 BLU
15:03
M
14 °C 10 km+ 2.400 ft 300° 300° 20 kt METAR EHVL 261303Z AUTO 30020KT 9999 BKN024 BKN028 OVC035 14/10 Q0994 WHT
14:59
V
15 °C 10 km+ 7.500 ft 290° 290° 19 kt METAR EHVL 261259Z AUTO 29019KT 9999 SCT024 SCT036 BKN075 15/11 Q0994 WHT
14:25
V
15 °C 10 km+ 5.800 ft 270° 270° 17 kt METAR EHVL 261225Z AUTO 27017KT 9999 FEW030 BKN058 BKN066 15/10 Q0994 BLU
14:19
V
15 °C 10 km+ 6.600 ft 270° 270° 16 kt METAR EHVL 261219Z AUTO 27016KT 9999 SCT057 BKN066 OVC072 15/11 Q0994 BLU
14:13
V
15 °C 10 km+ 6.300 ft 270° 270° 17 kt METAR EHVL 261213Z AUTO 27017KT 9999 FEW015CB SCT056 OVC063 15/11 Q0994 BLU
13:57
V
14 °C 10 km+ 3.500 ft 280° 280° 16 kt METAR EHVL 261157Z AUTO 28016KT 9999 -RA FEW015CB SCT027 BKN035 14/11 Q0994 BLU
13:55
M
14 °C 9 km 2.200 ft 280° 280° 16 kt METAR EHVL 261155Z AUTO 28016KT 9000 -RA FEW001 FEW015CB BKN022 BKN035 14/11 Q0994 RERA REDZ WHT
13:29
V
14 °C 9 km 3.800 ft 260° 260° 12 kt METAR EHVL 261129Z AUTO 26012KT 9000 DZRA FEW015CB SCT028 BKN038 14/12 Q0994 BLU
13:25
V
14 °C 10 km+ 5.000 ft 250° 250° 11 kt METAR EHVL 261125Z AUTO 25011KT 9999 FEW015CB SCT043 BKN050 14/12 Q0994 BLU
13:12
V
14 °C 9 km 5.700 ft 260° 260° 13 kt METAR EHVL 261112Z AUTO 26013KT 9000 -RA FEW015CB SCT051 OVC057 14/12 Q0994 BLU
13:03
M
14 °C 5 km 3.500 ft 270° 270° 18 kt METAR EHVL 261103Z AUTO 27018KT 5000 RA FEW014 SCT016 BKN035 14/12 Q0994 WHT
12:57
V
14 °C 10 km+ 6.400 ft 270° 270° 18 kt METAR EHVL 261057Z AUTO 27018KT 9999 FEW014 SCT017 BKN064 14/12 Q0994 WHT
12:55
V
15 °C 10 km+ 6.100 ft 260° 260° 17 kt METAR EHVL 261055Z AUTO 26017KT 9999 SCT056 BKN061 BKN069 15/12 Q0994 BLU
12:28
M
14 °C 7 km 4.300 ft 280° 280° 15 kt METAR EHVL 261028Z AUTO 28015KT 250V310 7000 -RA FEW019 SCT036 BKN043 14/12 Q0995 WHT
12:25
V
14 °C 10 km+ 3.800 ft 290° 290° 14 kt METAR EHVL 261025Z AUTO 29014KT 250V310 9999 FEW015CB SCT022 BKN038 14/12 Q0995 RERA REDZ WHT
12:14
M
13 °C 10 km+ 1.900 ft 300° 300° 17 kt METAR EHVL 261014Z AUTO 30017KT 9999 -RA FEW007 BKN019 OVC022 13/10 Q0995 WHT
12:09
I
14 °C 4,4 km 3.100 ft 280° 280° 21 kt METAR EHVL 261009Z AUTO 28021KT 4400 -RADZ FEW012 SCT017 OVC031 14/11 Q0995 GRN
11:55
V
15 °C 10 km+ 4.500 ft 270° 270° 19 kt METAR EHVL 260955Z AUTO 27019KT 9999 FEW035 BKN045 BKN050 15/12 Q0995 BLU
11:41
M
14 °C 9 km 2.600 ft 260° 260° 18 kt METAR EHVL 260941Z AUTO 26018KT 9000 -RADZ SCT016 SCT020 BKN026 14/12 Q0995 WHT
11:39
M
14 °C 9 km 2.900 ft 260° 260° 18 kt METAR EHVL 260939Z AUTO 26018KT 9000 BR FEW016 SCT025 BKN029 14/12 Q0995 BLU
11:29
V
15 °C 10 km+ 3.600 ft 250° 250° 18 kt METAR EHVL 260929Z AUTO 25018KT 9999 -RA FEW016 SCT019 OVC036 15/12 Q0995 WHT
11:25
V
14 °C 10 km+ 3.300 ft 250° 250° 17 kt METAR EHVL 260925Z AUTO 25017KT 9999 -RA SCT016 BKN033 OVC038 14/12 Q0995 WHT
11:17
V
14 °C 10 km+ 3.200 ft 250° 250° 17 kt METAR EHVL 260917Z AUTO 25017KT 9999 -DZRA SCT015 BKN032 BKN037 14/12 Q0995 WHT
11:11
M
14 °C 10 km+ 1.600 ft 250° 250° 18 kt METAR EHVL 260911Z AUTO 25018KT 9999 FEW013 BKN016 BKN020 14/12 Q0995 WHT
11:06
M
14 °C 10 km+ 1.800 ft 250° 250° 19 kt METAR EHVL 260906Z AUTO 25019KT 9999 FEW012 SCT014 BKN018 14/12 Q0995 GRN
11:03
V
14 °C 10 km+ 3.300 ft 250° 250° 19 kt METAR EHVL 260903Z AUTO 25019KT 9999 -RA FEW012 SCT018 BKN033 14/12 Q0995 WHT
10:56
V
14 °C 10 km+ 3.400 ft 250° 250° 19 kt METAR EHVL 260856Z AUTO 25019KT 9999 FEW013 SCT026 BKN034 14/12 Q0995 BLU
10:55
M
14 °C 9 km 2.500 ft 250° 250° 19 kt METAR EHVL 260855Z AUTO 25019KT 9000 -DZ FEW010 SCT013 BKN025 14/12 Q0995 REDZ GRN
10:41
M
14 °C 10 km+ 1.100 ft 230° 230° 22 kt METAR EHVL 260841Z AUTO 23022KT 9999 -RA FEW009 BKN011 BKN016 14/12 Q0995 GRN
10:37
M
14 °C 10 km+ 1.900 ft 230° 230° 24 kt METAR EHVL 260837Z AUTO 23024KT 9999 -RA FEW010 SCT012 BKN019 14/12 Q0995 GRN
10:25
M
14 °C 10 km+ 1.500 ft 240° 240° 25 kt METAR EHVL 260825Z AUTO 24025KT 9999 -RA FEW011 SCT013 BKN015CB 14/12 Q0995 GRN
10:19
M
14 °C 10 km+ 1.700 ft 240° 240° 25 kt METAR EHVL 260819Z AUTO 24025KT 9999 -DZ FEW011 SCT014 FEW015CB BKN017 14/12 Q0995 GRN
10:08
M
14 °C 10 km+ 1.600 ft 240° 240° 25 kt METAR EHVL 260808Z AUTO 24025KT 9999 -DZRA FEW011 SCT014 FEW015CB BKN016 14/12 Q0995 GRN
10:03
M
14 °C 10 km+ 1.500 ft 240° 240° 27 kt METAR EHVL 260803Z AUTO 24027KT 9999 FEW012 BKN015 BKN024 14/11 Q0995 WHT
09:55
M
14 °C 9 km 1.500 ft 240° 240° 28 kt METAR EHVL 260755Z AUTO 24028KT 9000 -RADZ SCT013 BKN015CB BKN018 14/11 Q0995 GRN
09:39
V
14 °C 10 km+ 4.700 ft 250° 250° 29 kt METAR EHVL 260739Z AUTO 25029KT 9999 FEW011 FEW015CB SCT019 OVC047 14/12 Q0995 WHT
09:37
V
14 °C 10 km+ 4.100 ft 240° 240° 29 kt METAR EHVL 260737Z AUTO 24029KT 9999 DZ FEW011 SCT014 FEW015CB BKN041 14/12 Q0995 GRN
09:25
I
13 °C 3,9 km 1.900 ft 250° 250° 28 kt METAR EHVL 260725Z AUTO 25028KT 3900 -SHRA FEW007 SCT010 FEW015CB BKN019 13/12 Q0996 RERA REDZ GRN
09:16
I
13 °C 3,5 km 1.400 ft 250° 250° 26 kt METAR EHVL 260716Z AUTO 25026KT 3500 SHRA FEW006 SCT011 BKN014 13/12 Q0996 YLO
09:10
I
13 °C 4 km 1.600 ft 240° 240° 26 kt METAR EHVL 260710Z AUTO 24026KT 200V270 4000 SHRA FEW010 SCT014 BKN016 13/12 Q0996 GRN
09:00
I
13 °C 3,8 km 2.400 ft 230° 230° 25 kt METAR EHVL 260700Z AUTO 23025KT 3800 SHRA FEW015 SCT020 BKN024 13/11 Q0996 GRN
08:57
I
13 °C 3,6 km 2.400 ft 230° 230° 27 kt METAR EHVL 260657Z AUTO 23027KT 3600 SHRA +DZ FEW015 SCT021 BKN024 13/11 Q0996 YLO
08:55
I
13 °C 4,3 km 2.700 ft 230° 230° 26 kt METAR EHVL 260655Z AUTO 23026KT 4300 +DZ SCT020 BKN027 BKN031 13/11 Q0996 GRN
08:37
M
14 °C 5 km 3.800 ft 230° 230° 28 kt METAR EHVL 260637Z AUTO 23028KT 5000 -RADZ FEW024 BKN038 BKN043 14/10 Q0996 WHT
08:31
V
14 °C 10 km+ 3.700 ft 230° 230° 30 kt METAR EHVL 260631Z AUTO 23030KT 9999 FEW023 BKN037 OVC041 14/10 Q0996 BLU
08:26
V
14 °C 10 km+ 3.600 ft 240° 240° 29 kt METAR EHVL 260626Z AUTO 24029KT 9999 -RA FEW015CB SCT032 BKN036 14/10 Q0997 BLU
08:25
V
14 °C 8 km 3.800 ft 230° 230° 27 kt METAR EHVL 260625Z AUTO 23027KT 8000 -SHRA FEW015CB SCT023 BKN038 14/10 Q0997 REDZ WHT
08:17
V
14 °C 10 km+ 3.700 ft 230° 230° 28 kt METAR EHVL 260617Z AUTO 23028KT 9999 -RADZ SCT023 SCT032 BKN037 14/10 Q0997 WHT
08:04
V
14 °C 10 km+ 3.800 ft 230° 230° 27 kt METAR EHVL 260604Z AUTO 23027KT 9999 FEW023 SCT026 BKN038 14/10 Q0997 BLU
07:55
M
14 °C 10 km+ 2.800 ft 230° 230° 28 kt METAR EHVL 260555Z AUTO 23028KT 9999 SCT024 BKN028 BKN033 14/10 Q0997 WHT
07:40
V
14 °C 10 km+ 3.500 ft 230° 230° 29 kt METAR EHVL 260540Z AUTO 23029KT 9999 SCT024 BKN035 BKN042 14/10 Q0997 WHT
07:31
V
14 °C 10 km+ 4.000 ft 230° 230° 30 kt METAR EHVL 260531Z AUTO 23030KT 9999 FEW024 SCT030 BKN040 14/09 Q0997 BLU
07:25
M
14 °C 10 km+ 2.800 ft 230° 230° 30 kt METAR EHVL 260525Z AUTO 23030KT 9999 SCT024 BKN028 BKN032 14/09 Q0997 WHT
06:56
M
14 °C 10 km+ 2.200 ft 230° 230° 28 kt METAR EHVL 260456Z AUTO 23028KT 9999 BKN022 BKN026 BKN029 14/10 Q0998 WHT
06:55
M
14 °C 10 km+ 2.800 ft 230° 230° 28 kt METAR EHVL 260455Z AUTO 23028KT 9999 SCT024 BKN028 BKN036 14/10 Q0998 WHT
06:25
V
14 °C 10 km+ 3.100 ft 240° 240° 30 kt METAR EHVL 260425Z AUTO 24030KT 9999 -DZ FEW018CB SCT027 BKN031 14/09 Q0999 REDZ BLU
06:14
V
13 °C 10 km+ 3.200 ft 240° 240° 27 kt METAR EHVL 260414Z AUTO 24027KT 9999 DZRA FEW015CB SCT021 BKN032 13/10 Q0999 WHT
06:10
V
13 °C 10 km+ 3.800 ft 240° 240° 26 kt METAR EHVL 260410Z AUTO 24026KT 9999 -RA FEW015CB SCT021 BKN038 13/10 Q1000 WHT
06:02
V
14 °C 10 km+ 3.500 ft 240° 240° 26 kt METAR EHVL 260402Z AUTO 24026KT 9999 DZRA FEW025 SCT029 BKN035 14/10 Q1000 BLU
05:55
V
14 °C 10 km+ 3.300 ft 240° 240° 28 kt METAR EHVL 260355Z AUTO 24028KT 9999 -RA FEW026 SCT029 BKN033 14/09 Q1000 BLU
05:25
V
14 °C 10 km+ 3.200 ft 240° 240° 26 kt METAR EHVL 260325Z AUTO 24026KT 9999 SCT029 BKN032 BKN037 14/09 Q1000 BLU
04:55
V
14 °C 10 km+ 3.400 ft 240° 240° 27 kt METAR EHVL 260255Z AUTO 24027KT 9999 SCT029 BKN034 BKN042 14/09 Q1001 BLU
04:25
V
14 °C 10 km+ 4.700 ft 230° 230° 26 kt METAR EHVL 260225Z AUTO 23026KT 9999 FEW031 BKN047 OVC052 14/08 Q1002 BLU
03:55
V
14 °C 10 km+ 3.600 ft 240° 240° 24 kt METAR EHVL 260155Z AUTO 24024KT 9999 SCT030 BKN036 BKN071 14/08 Q1003 BLU
03:44
V
14 °C 10 km+ 3.000 ft 240° 240° 24 kt METAR EHVL 260144Z AUTO 24024KT 9999 BKN030 BKN041 BKN046 14/09 Q1003 BLU
03:25
V
14 °C 10 km+ 4.700 ft 240° 240° 25 kt METAR EHVL 260125Z AUTO 24025KT 9999 FEW020CB SCT030 BKN047 14/09 Q1003 REDZ BLU
03:05
V
14 °C 10 km+ 4.100 ft 240° 240° 25 kt METAR EHVL 260105Z AUTO 24025KT 9999 -RA FEW019CB SCT034 BKN041 14/09 Q1004 BLU
02:56
V
13 °C 10 km+ 5.600 ft 230° 230° 23 kt METAR EHVL 260056Z AUTO 23023KT 9999 DZRA FEW016CB SCT028 BKN056 13/09 Q1004 BLU
02:55
V
13 °C 10 km+ 5.900 ft 230° 230° 23 kt METAR EHVL 260055Z AUTO 23023KT 9999 -RADZ FEW016CB SCT027 OVC059 13/09 Q1004 BLU
02:38
V
14 °C 10 km+ 4.600 ft 240° 240° 23 kt METAR EHVL 260038Z AUTO 24023KT 9999 -RA FEW016CB SCT027 BKN046 14/09 Q1004 BLU
02:26
V
14 °C 10 km+ 4.700 ft 240° 240° 23 kt METAR EHVL 260026Z AUTO 24023KT 9999 DZRA FEW027/// BKN047/// BKN054/// 14/09 Q1004 BLU
02:25
V
14 °C 10 km+ 5.800 ft 240° 240° 23 kt METAR EHVL 260025Z AUTO 24023KT 9999 -DZ FEW031 SCT045 BKN058 14/09 Q1005 BLU
02:09
V
14 °C 10 km+ 4.800 ft 240° 240° 24 kt METAR EHVL 260009Z AUTO 24024KT 9999 -DZ FEW044 BKN048 OVC053 14/09 Q1005 BLU
01:55
V
15 °C 10 km+ 4.800 ft 250° 250° 24 kt METAR EHVL 252355Z AUTO 25024KT 9999 FEW024CB BKN048 BKN053 15/08 Q1005 BLU
01:25
V
15 °C 10 km+ 5.100 ft 240° 240° 23 kt METAR EHVL 252325Z AUTO 24023KT 9999 SCT031 SCT038 BKN051 15/08 Q1006 BLU
00:55
V
15 °C 10 km+ 8.200 ft 240° 240° 22 kt METAR EHVL 252255Z AUTO 24022KT 9999 SCT031 BKN082 BKN090 15/08 Q1006 BLU
00:25
V
15 °C 10 km+ 5.000 ft 240° 240° 23 kt METAR EHVL 252225Z AUTO 24023KT 9999 SCT046 BKN050 OVC056 15/08 Q1007 BLU

25. September 2022

Uhrzeit Code Wetter Temp. Sichtweite Wolkendecke Wind METAR/SPECI
23:55
V
14 °C 10 km+ 3.900 ft 250° 250° 22 kt METAR EHVL 252155Z AUTO 25022KT 9999 -DZ FEW034 OVC039 14/08 Q1008 REDZ BLU
23:25
V
14 °C 10 km+ 4.800 ft 250° 250° 19 kt METAR EHVL 252125Z AUTO 25019KT 9999 FEW033 SCT042 BKN048 14/08 Q1009 BLU
22:55
V
14 °C 10 km+ 10.000 ft 250° 250° 21 kt METAR EHVL 252055Z AUTO 25021KT 9999 FEW035 OVC100 14/08 Q1009 BLU
22:25
V
14 °C 10 km+ 10.000 ft 260° 260° 19 kt METAR EHVL 252025Z AUTO 26019KT 9999 SCT034 SCT038 OVC100 14/07 Q1010 BLU
21:55
V
14 °C 10 km+ 6.000 ft 260° 260° 15 kt METAR EHVL 251955Z AUTO 26015KT 9999 OVC060 14/08 Q1010 BLU
21:25
V
14 °C 10 km+ 3.200 ft 270° 270° 15 kt METAR EHVL 251925Z AUTO 27015KT 9999 SCT028 BKN032 OVC054 14/08 Q1010 BLU
20:55
V
14 °C 10 km+ 4.800 ft 250° 250° 14 kt METAR EHVL 251855Z AUTO 25014KT 9999 SCT036 BKN048 OVC059 14/07 Q1010 BLU
20:25
V
14 °C 10 km+ 5.000 ft 260° 260° 15 kt METAR EHVL 251825Z AUTO 26015KT 9999 FEW036 SCT042 OVC050 14/08 Q1011 BLU
19:55
V
14 °C 10 km+ 6.000 ft 260° 260° 13 kt METAR EHVL 251755Z AUTO 26013KT 9999 FEW031 SCT035 OVC060 14/08 Q1011 BLU
19:25
V
13 °C 10 km+ 22.000 ft 280° 280° 8 kt METAR EHVL 251725Z AUTO 28008KT 9999 FEW057 SCT063 OVC220 13/09 Q1012 BLU
18:55
V
14 °C 10 km+ 23.000 ft 270° 270° 10 kt METAR EHVL 251655Z AUTO 27010KT 9999 SCT031 SCT041 OVC230 14/08 Q1012 BLU
18:25
V
14 °C 10 km+ 3.000 ft 270° 270° 9 kt METAR EHVL 251625Z AUTO 27009KT 9999 BKN030 BKN038 BKN061 14/08 Q1012 BLU
17:55
V
14 °C 10 km+ 31.000 ft 280° 280° 8 kt METAR EHVL 251555Z AUTO 28008KT 9999 FEW030 SCT053 OVC310 14/08 Q1013 BLU
17:25
V
14 °C 10 km+ 4.000 ft 250° 250° 9 kt METAR EHVL 251525Z AUTO 25009KT 9999 FEW026 SCT030 BKN040 14/09 Q1013 BLU
17:14
V
15 °C 10 km+ 3.800 ft 240° 240° 9 kt METAR EHVL 251514Z AUTO 24009KT 9999 SCT023 SCT030 BKN038 15/09 Q1013 WHT
17:09
V
15 °C 10 km+ 5.000 ft 250° 250° 8 kt METAR EHVL 251509Z AUTO 25008KT 9999 FEW024 SCT030 BKN050 15/09 Q1013 BLU
16:57
M
15 °C 10 km+ 2.600 ft 250° 250° 9 kt METAR EHVL 251457Z AUTO 25009KT 9999 SCT022 BKN026 BKN031 15/09 Q1013 WHT
16:55
V
16 °C 10 km+ 4.600 ft 260° 260° 8 kt METAR EHVL 251455Z AUTO 26008KT 9999 FEW025 SCT031 BKN046 16/09 Q1013 BLU
Ältere Daten

Wir und Dritte verfolgen dein Internetverhalten auf unserer Website mit Cookies. Wenn du fortfährst, gehen wir davon aus, dass du mit unserer Cookie-Richtlinie einverstanden bist. Mehr erfahren